CheckWX is a tool to help pilots better visualize weather data.  It is not intended as a substitute for an official pre-flight weather briefing.

15:37:24 UTC

SLTR TAF
Teniente Av. Jorge Henrich Arauz Airport
Trinidad, Bolivia
TAF SLTR 281600Z 2818/2918 32008KT 9999 FEW027 TX30/2820Z TN13/2910Z BECMG 2823/2903 00000KT NSC

May-28@
18:00 UTC

May-28 @ 18:00 UTC

May-28@
23:00 UTC

May-28 @ 23:00 UTC

TAF SLTR 281600Z 2818/2918 32008KT 9999 FEW027 TX30/2820Z TN13/2910Z

Expired

Wind
  • 320° at 8 KTS
Cloud Levels
  • Few at 2,700' AGL

May-28@
23:00 UTC

May-28 @ 23:00 UTC

May-29@
18:00 UTC

May-29 @ 18:00 UTC

BECMG 2823/2903 00000KT NSC

Becoming

Becoming Conditions expected by Fri, May 29, 2020 @ 03:00 UTC

Cloud Levels
  • No significant clouds